Time;durP1;ratioP1;P1;durP2;ratioP2;P2;SDS_P1;SDS_P2;PMS_P1;PMS_P2;Temp;Humidity;BMP_temperature;BMP_pressure;BME280_temperature;BME280_humidity;BME280_pressure;Samples;Min_cycle;Max_cycle;Signal;HPM_P1;HPM_P2
2022/03/09 06:38:58;;;;;;;;;46.75;36.00;;;;;16.13;50.55;101747.56;5098053;27;45472;-71
2022/03/09 06:41:23;;;;;;;;;43.00;34.50;;;;;16.35;50.43;101754.28;5086129;27;45427;-73
2022/03/09 06:43:48;;;;;;;;;38.00;32.50;;;;;16.62;50.22;101749.00;5079525;27;46567;-72
2022/03/09 06:46:16;;;;;;;;;37.50;33.25;;;;;16.98;50.31;101755.63;5081952;27;50679;-71
2022/03/09 06:48:41;;;;;;;;;38.25;31.00;;;;;17.38;49.64;101754.81;5084907;27;46994;-74
2022/03/09 06:51:06;;;;;;;;;37.00;32.75;;;;;17.75;49.71;101759.53;5087434;27;45370;-74
2022/03/09 06:53:31;;;;;;;;;40.50;33.75;;;;;18.12;49.08;101757.97;5086880;27;45577;-73
2022/03/09 06:55:57;;;;;;;;;31.75;30.50;;;;;18.47;48.89;101759.97;5081790;27;45647;-71
2022/03/09 06:58:23;;;;;;;;;34.75;32.75;;;;;18.75;48.30;101744.53;5084164;27;49135;-72
2022/03/09 07:00:49;;;;;;;;;47.75;33.25;;;;;19.11;47.89;101755.44;5089622;27;45489;-72
2022/03/09 07:03:14;;;;;;;;;36.00;31.50;;;;;19.43;47.64;101759.34;5094346;27;45611;-69
2022/03/09 07:05:40;;;;;;;;;33.00;31.50;;;;;19.72;47.21;101761.66;5078287;27;45611;-71
2022/03/09 07:08:05;;;;;;;;;39.75;32.00;;;;;19.99;47.35;101764.06;5083416;27;45522;-71
2022/03/09 07:10:30;;;;;;;;;31.00;29.25;;;;;20.26;46.63;101762.88;5085098;27;45722;-72
2022/03/09 07:12:56;;;;;;;;;35.75;32.25;;;;;20.51;46.31;101763.63;5088619;27;46023;-74
2022/03/09 07:15:21;;;;;;;;;32.00;28.00;;;;;20.72;45.83;101770.09;5072466;27;45385;-72
2022/03/09 07:17:47;;;;;;;;;38.50;31.25;;;;;20.92;45.51;101776.56;5082154;27;46356;-71
2022/03/09 07:20:14;;;;;;;;;35.75;31.00;;;;;21.10;45.48;101778.75;5083695;27;45460;-72
2022/03/09 07:22:40;;;;;;;;;30.50;27.75;;;;;21.23;45.05;101776.75;5078301;27;49736;-70
2022/03/09 07:25:07;;;;;;;;;31.00;28.75;;;;;21.38;45.03;101782.69;5078384;27;45473;-72
2022/03/09 07:27:32;;;;;;;;;30.00;28.75;;;;;21.49;44.54;101784.50;5073235;27;45442;-72
2022/03/09 07:29:58;;;;;;;;;33.00;28.75;;;;;21.58;44.34;101786.44;5070270;27;45257;-74
2022/03/09 07:32:23;;;;;;;;;49.25;37.50;;;;;21.64;43.44;101786.88;5094019;27;45441;-74
2022/03/09 07:34:48;;;;;;;;;44.50;34.75;;;;;21.66;42.60;101788.47;5074713;27;45638;-74
2022/03/09 07:37:14;;;;;;;;;46.00;36.75;;;;;21.65;42.45;101791.28;5084689;27;62828;-72
2022/03/09 07:39:39;;;;;;;;;36.75;34.00;;;;;21.63;42.23;101794.16;5082905;27;46736;-72
2022/03/09 07:42:05;;;;;;;;;44.50;35.75;;;;;21.64;41.81;101789.59;5088025;27;45639;-73
2022/03/09 07:44:31;;;;;;;;;41.50;35.75;;;;;21.63;40.99;101788.75;5098671;27;45756;-73
2022/03/09 07:46:56;;;;;;;;;35.25;31.00;;;;;21.65;41.09;101799.41;5084365;27;46474;-72
2022/03/09 07:49:22;;;;;;;;;46.75;37.00;;;;;21.68;41.07;101813.53;5078678;27;45501;-72
2022/03/09 07:51:47;;;;;;;;;46.50;37.50;;;;;21.71;41.62;101807.00;5074771;27;50650;-72
2022/03/09 07:54:13;;;;;;;;;44.50;34.50;;;;;21.81;41.41;101812.50;5073266;28;45856;-72
2022/03/09 07:56:39;;;;;;;;;46.50;37.50;;;;;21.92;41.42;101808.88;5077369;27;45475;-73
2022/03/09 07:59:05;;;;;;;;;39.25;33.50;;;;;22.02;41.58;101814.38;5072871;27;45579;-72
2022/03/09 08:01:31;;;;;;;;;38.75;32.75;;;;;22.14;41.65;101818.69;5069225;27;45420;-71
2022/03/09 08:03:57;;;;;;;;;38.50;33.50;;;;;22.24;41.04;101827.72;5072739;27;45456;-72
2022/03/09 08:06:22;;;;;;;;;42.00;32.25;;;;;22.33;40.96;101826.06;5073691;27;46281;-72
2022/03/09 08:08:48;;;;;;;;;39.00;32.25;;;;;22.40;41.30;101823.66;5067041;27;45929;-73
2022/03/09 08:11:13;;;;;;;;;34.75;31.50;;;;;22.48;40.79;101837.38;5077926;27;45411;-73
2022/03/09 08:13:39;;;;;;;;;29.50;27.50;;;;;22.55;40.43;101836.88;5079953;27;45610;-73
2022/03/09 08:16:04;;;;;;;;;43.75;31.25;;;;;22.57;40.69;101824.94;5074609;27;45498;-74
2022/03/09 08:18:30;;;;;;;;;44.50;34.00;;;;;22.58;40.51;101815.81;5082604;27;46766;-73
2022/03/09 08:20:55;;;;;;;;;34.75;30.75;;;;;22.59;40.80;101822.06;5069595;27;45460;-73
2022/03/09 08:23:22;;;;;;;;;34.75;29.00;;;;;22.69;40.63;101822.13;5069823;27;45391;-74
2022/03/09 08:25:48;;;;;;;;;33.50;29.50;;;;;22.72;40.44;101822.69;5096810;27;46382;-74
2022/03/09 08:28:14;;;;;;;;;29.50;26.00;;;;;22.77;40.61;101836.69;5078135;27;45506;-74
2022/03/09 08:30:40;;;;;;;;;32.00;28.75;;;;;22.83;41.00;101827.16;5069928;27;45886;-73
2022/03/09 08:33:06;;;;;;;;;33.50;28.75;;;;;22.90;40.71;101824.75;5072945;27;45527;-74
2022/03/09 08:35:32;;;;;;;;;25.25;23.75;;;;;22.96;40.88;101826.91;5074369;27;46216;-73
2022/03/09 08:37:57;;;;;;;;;30.75;29.00;;;;;23.03;40.67;101828.09;5072868;27;45705;-74
2022/03/09 08:40:23;;;;;;;;;27.00;23.75;;;;;23.10;40.68;101835.63;5078630;27;45381;-76
2022/03/09 08:42:48;;;;;;;;;24.75;24.75;;;;;23.16;40.83;101835.94;5072557;28;45389;-74
2022/03/09 08:45:14;;;;;;;;;25.75;22.50;;;;;23.22;41.07;101829.09;5076406;27;45993;-73
2022/03/09 08:47:39;;;;;;;;;30.75;26.00;;;;;23.27;40.87;101826.84;5078275;27;45453;-74
2022/03/09 08:50:06;;;;;;;;;25.25;24.75;;;;;23.32;40.69;101828.25;5061937;27;45463;-72
2022/03/09 08:52:31;;;;;;;;;26.50;24.50;;;;;23.35;41.56;101826.16;5076803;27;45759;-74
2022/03/09 08:54:56;;;;;;;;;27.75;24.75;;;;;23.38;40.58;101833.16;5073283;27;46018;-73
2022/03/09 08:57:22;;;;;;;;;30.50;27.00;;;;;23.39;40.83;101829.44;5076423;27;45527;-73
2022/03/09 08:59:47;;;;;;;;;24.50;24.25;;;;;23.41;40.88;101824.72;5063975;27;45360;-74
2022/03/09 09:02:13;;;;;;;;;29.50;27.00;;;;;23.38;41.04;101816.91;5067820;27;45441;-73
2022/03/09 09:04:38;;;;;;;;;31.50;26.50;;;;;23.43;41.14;101820.88;5072145;27;47137;-72
2022/03/09 09:07:04;;;;;;;;;25.25;22.75;;;;;23.46;41.36;101824.31;5073371;27;50778;-71
2022/03/09 09:09:29;;;;;;;;;25.25;23.25;;;;;23.47;41.04;101816.06;5070591;28;45739;-72
2022/03/09 09:11:55;;;;;;;;;26.50;22.25;;;;;23.53;41.46;101814.59;5074743;27;45560;-72
2022/03/09 09:14:21;;;;;;;;;22.75;18.25;;;;;23.58;41.20;101816.91;5072336;27;46267;-71
2022/03/09 09:16:47;;;;;;;;;25.00;21.00;;;;;23.64;41.39;101819.03;5068091;27;45475;-72
2022/03/09 09:19:12;;;;;;;;;20.67;20.00;;;;;23.69;41.45;101817.59;5067451;27;45422;-72
2022/03/09 09:21:38;;;;;;;;;23.00;21.75;;;;;23.75;41.19;101815.31;5069637;27;46394;-72
2022/03/09 09:24:04;;;;;;;;;27.33;20.33;;;;;23.81;40.80;101812.03;5064411;28;46113;-73
2022/03/09 09:26:29;;;;;;;;;28.50;24.75;;;;;23.84;40.81;101811.75;5075559;27;45748;-73
2022/03/09 09:28:55;;;;;;;;;16.33;16.00;;;;;23.82;40.39;101792.91;5067807;27;45508;-91
2022/03/09 09:31:20;;;;;;;;;36.75;29.50;;;;;23.80;39.00;101794.06;5072331;27;45528;-77
2022/03/09 09:33:46;;;;;;;;;33.50;27.00;;;;;23.75;38.63;101799.06;5069832;27;45493;-85
2022/03/09 09:36:11;;;;;;;;;39.00;29.75;;;;;23.62;38.55;101800.19;5077277;27;45584;-82
2022/03/09 09:38:36;;;;;;;;;36.75;30.75;;;;;23.45;38.72;101790.09;5074430;27;45818;-79
2022/03/09 09:41:02;;;;;;;;;28.50;27.25;;;;;23.35;38.59;101800.91;5072904;28;52393;-79
2022/03/09 09:43:27;;;;;;;;;29.00;26.50;;;;;23.22;38.57;101791.16;5076058;27;45597;-82
2022/03/09 09:45:53;;;;;;;;;31.75;27.25;;;;;23.13;38.90;101792.03;5073117;27;45524;-88
2022/03/09 09:48:19;;;;;;;;;38.00;29.75;;;;;23.06;38.77;101780.91;5070101;27;45483;-85
2022/03/09 09:50:45;;;;;;;;;32.00;28.25;;;;;22.99;39.32;101782.44;5072222;27;45514;-78
2022/03/09 09:53:13;;;;;;;;;34.50;30.25;;;;;22.95;39.45;101781.88;5070688;27;46101;-78
2022/03/09 09:55:40;;;;;;;;;32.50;28.25;;;;;22.92;39.48;101784.03;5068663;27;45852;-75
2022/03/09 09:58:06;;;;;;;;;32.50;26.50;;;;;22.88;39.53;101778.88;5067722;27;46338;-76
2022/03/09 10:00:32;;;;;;;;;31.50;27.00;;;;;22.86;39.65;101782.72;5075684;27;45491;-76
2022/03/09 10:02:58;;;;;;;;;26.75;25.50;;;;;22.83;39.52;101781.16;5070236;28;46039;-80
2022/03/09 10:05:24;;;;;;;;;24.50;23.00;;;;;22.83;39.12;101775.72;5069685;27;45511;-83
2022/03/09 10:08:08;;;;;;;;;28.75;24.25;;;;;22.82;39.14;101776.75;5072048;28;45505;-82
2022/03/09 10:10:37;;;;;;;;;31.00;27.00;;;;;22.81;38.86;101776.88;5073257;27;45565;-81
2022/03/09 10:13:22;;;;;;;;;29.50;24.50;;;;;22.75;38.89;101770.16;5071153;28;45564;-79
2022/03/09 10:16:05;;;;;;;;;32.00;26.50;;;;;22.72;39.17;101774.00;5069662;27;45492;-75
2022/03/09 10:18:31;;;;;;;;;28.50;26.25;;;;;22.73;39.10;101778.41;5072529;27;45403;-77
2022/03/09 10:21:08;;;;;;;;;23.00;20.50;;;;;22.60;38.88;101759.72;5075205;27;45465;-76
2022/03/09 10:23:33;;;;;;;;;25.50;21.50;;;;;22.68;39.17;101777.13;5063119;28;47277;-77
2022/03/09 10:26:02;;;;;;;;;28.75;22.75;;;;;22.66;38.85;101781.81;5070350;27;45421;-77
2022/03/09 10:28:27;;;;;;;;;25.25;20.75;;;;;22.64;38.82;101771.97;5070980;27;45648;-77
2022/03/09 10:30:53;;;;;;;;;25.00;22.50;;;;;22.63;38.77;101772.09;5073448;27;45773;-79
2022/03/09 10:33:19;;;;;;;;;29.25;24.75;;;;;22.62;38.64;101773.97;5069265;27;46279;-80
2022/03/09 10:35:47;;;;;;;;;29.75;28.75;;;;;22.59;37.98;101778.78;5073468;28;45607;-84
2022/03/09 10:38:15;;;;;;;;;32.25;26.75;;;;;22.55;38.51;101778.22;5073477;27;45308;-79
2022/03/09 10:40:41;;;;;;;;;27.25;24.00;;;;;22.55;38.40;101780.91;5071350;27;45527;-76
2022/03/09 10:43:10;;;;;;;;;30.25;26.75;;;;;22.53;39.24;101763.94;5069947;27;45556;-76
2022/03/09 10:45:36;;;;;;;;;33.50;25.00;;;;;22.54;38.48;101772.94;5072477;27;45551;-77
2022/03/09 10:48:01;;;;;;;;;27.00;23.50;;;;;22.54;39.06;101770.22;5072033;27;45593;-75
2022/03/09 10:50:30;;;;;;;;;25.75;22.50;;;;;22.53;38.56;101760.38;5078532;27;45444;-79
2022/03/09 10:52:55;;;;;;;;;22.75;21.50;;;;;22.54;38.44;101760.28;5061465;27;47164;-77
2022/03/09 10:55:32;;;;;;;;;31.00;22.50;;;;;22.54;38.50;101757.56;5070729;27;45616;-75
2022/03/09 10:58:17;;;;;;;;;22.75;19.75;;;;;22.56;38.88;101752.84;5071058;28;45484;-74
2022/03/09 11:00:42;;;;;;;;;23.25;20.50;;;;;22.61;38.74;101756.00;5073296;27;45503;-74
2022/03/09 11:03:13;;;;;;;;;20.75;18.00;;;;;22.64;39.15;101763.84;5073018;27;46331;-75
2022/03/09 11:06:03;;;;;;;;;23.75;20.75;;;;;22.77;39.41;101760.91;5070350;27;45528;-75
2022/03/09 11:08:34;;;;;;;;;20.25;20.25;;;;;22.85;39.51;101759.34;5068038;27;45536;-75
2022/03/09 11:11:00;;;;;;;;;22.67;18.67;;;;;22.90;39.52;101760.63;5070877;27;45572;-75
2022/03/09 11:13:32;;;;;;;;;27.75;20.75;;;;;22.97;39.19;101757.38;5070657;27;46088;-75
2022/03/09 11:15:57;;;;;;;;;20.67;16.67;;;;;22.98;39.16;101757.25;5072249;27;45387;-75
2022/03/09 11:18:25;;;;;;;;;21.33;19.67;;;;;23.06;38.70;101758.38;5071370;27;45370;-75
2022/03/09 11:20:56;;;;;;;;;18.33;17.00;;;;;23.10;38.87;101766.06;5071992;27;45422;-75
2022/03/09 11:23:23;;;;;;;;;18.67;18.33;;;;;23.15;38.75;101757.53;5067280;28;47117;-75
2022/03/09 11:26:09;;;;;;;;;20.67;17.33;;;;;23.19;38.83;101761.69;5074604;27;45484;-75
2022/03/09 11:28:39;;;;;;;;;24.67;18.00;;;;;23.23;38.68;101756.81;5073053;27;45369;-75
2022/03/09 11:31:08;;;;;;;;;21.67;17.67;;;;;23.26;38.47;101745.72;5074206;27;45485;-76
2022/03/09 11:33:45;;;;;;;;;19.67;17.33;;;;;23.28;38.37;101754.53;5073224;27;46099;-75
2022/03/09 11:36:20;;;;;;;;;13.67;12.33;;;;;23.30;38.83;101739.03;5074861;28;45596;-75
2022/03/09 11:38:45;;;;;;;;;18.67;16.67;;;;;23.33;38.21;101740.63;5069109;27;45617;-75
2022/03/09 11:41:17;;;;;;;;;19.67;16.67;;;;;23.35;38.44;101738.63;5074578;27;46173;-75
2022/03/09 11:43:43;;;;;;;;;18.67;16.33;;;;;23.37;38.22;101729.34;5067569;27;46348;-75
2022/03/09 11:46:08;;;;;;;;;17.67;14.00;;;;;23.38;38.17;101725.63;5068243;28;45752;-75
2022/03/09 11:48:52;;;;;;;;;20.00;14.33;;;;;23.41;38.44;101728.06;5074108;27;46417;-75
2022/03/09 11:51:20;;;;;;;;;14.00;14.00;;;;;23.43;38.61;101720.63;5076717;27;46249;-75
2022/03/09 11:53:53;;;;;;;;;17.00;15.00;;;;;23.46;38.27;101726.78;5080775;27;46325;-75
2022/03/09 11:56:35;;;;;;;;;16.00;15.00;;;;;23.47;38.04;101718.50;5074634;27;45428;-75
2022/03/09 11:59:07;;;;;;;;;15.33;15.33;;;;;23.47;38.05;101731.19;5064659;27;54690;-75
2022/03/09 12:01:56;;;;;;;;;13.33;13.33;;;;;23.48;38.52;101720.22;5072484;27;45437;-75
2022/03/09 12:04:45;;;;;;;;;14.00;12.33;;;;;23.50;38.22;101715.50;5070041;27;46485;-78
2022/03/09 12:07:12;;;;;;;;;15.00;14.33;;;;;23.51;38.20;101714.50;5073037;27;45550;-75
2022/03/09 12:09:59;;;;;;;;;13.00;13.00;;;;;23.52;38.41;101709.94;5072095;27;45784;-76
2022/03/09 12:12:26;;;;;;;;;16.67;14.00;;;;;23.52;38.11;101707.22;5081466;27;45431;-76
2022/03/09 12:15:09;;;;;;;;;15.00;14.33;;;;;23.51;38.09;101708.22;5082078;27;46069;-76
2022/03/09 12:17:37;;;;;;;;;12.33;11.33;;;;;23.49;38.54;101707.50;5073589;27;45454;-76
2022/03/09 12:20:44;;;;;;;;;12.00;12.00;;;;;23.48;37.99;101701.25;5067562;27;45555;-75
2022/03/09 12:23:14;;;;;;;;;13.00;13.00;;;;;23.48;37.82;101697.66;5050712;28;45506;-75
2022/03/09 12:25:47;;;;;;;;;16.00;14.00;;;;;23.49;38.07;101689.41;5057597;28;46199;-75
2022/03/09 12:28:21;;;;;;;;;10.67;10.67;;;;;23.50;38.19;101687.56;5054348;28;45449;-75
2022/03/09 12:30:47;;;;;;;;;13.67;11.67;;;;;23.51;38.10;101687.38;5059255;28;46717;-75
2022/03/09 12:33:24;;;;;;;;;15.00;13.33;;;;;23.53;38.19;101687.25;5067784;28;45449;-75
2022/03/09 12:36:02;;;;;;;;;19.67;16.00;;;;;23.54;38.06;101687.09;5055788;28;46252;-75
2022/03/09 12:38:34;;;;;;;;;19.00;17.33;;;;;23.53;38.13;101674.56;5052306;28;46994;-76
2022/03/09 12:41:00;;;;;;;;;14.00;11.67;;;;;23.51;37.37;101675.72;5054893;28;45593;-76
2022/03/09 12:43:26;;;;;;;;;24.67;19.00;;;;;23.45;37.07;101684.44;5050949;28;45747;-75
2022/03/09 12:45:53;;;;;;;;;25.67;17.67;;;;;23.35;36.70;101670.91;5051048;28;45487;-74
2022/03/09 12:48:20;;;;;;;;;21.33;18.67;;;;;23.27;36.94;101675.16;5045784;28;45376;-74
2022/03/09 12:50:46;;;;;;;;;24.67;16.67;;;;;23.17;36.76;101664.31;5052452;28;45573;-74
2022/03/09 12:53:12;;;;;;;;;25.67;14.00;;;;;23.07;37.14;101666.19;5031698;28;45817;-74
2022/03/09 12:55:38;;;;;;;;;17.67;12.67;;;;;23.03;36.90;101670.19;5049965;28;46500;-73
2022/03/09 12:58:03;;;;;;;;;17.67;17.00;;;;;22.97;37.15;101666.19;5051480;28;45713;-74
2022/03/09 13:00:30;;;;;;;;;20.67;13.00;;;;;22.93;37.07;101666.63;5061959;27;47026;-76
2022/03/09 13:03:00;;;;;;;;;21.33;15.67;;;;;22.89;36.67;101661.47;5068871;27;45457;-75
2022/03/09 13:05:28;;;;;;;;;17.33;12.67;;;;;22.86;36.50;101667.19;5063094;28;46439;-75
2022/03/09 13:07:58;;;;;;;;;15.33;13.33;;;;;22.83;36.90;101656.63;5061512;28;45516;-75
2022/03/09 13:10:29;;;;;;;;;18.33;18.33;;;;;22.82;37.49;101657.66;5064541;27;45883;-76
2022/03/09 13:13:02;;;;;;;;;14.67;13.33;;;;;22.82;37.54;101654.06;5064484;27;45497;-76
2022/03/09 13:15:34;;;;;;;;;19.33;17.67;;;;;22.82;37.33;101656.78;5062634;27;45534;-76
2022/03/09 13:17:59;;;;;;;;;15.67;13.00;;;;;22.82;37.97;101648.66;5059315;27;45726;-77
2022/03/09 13:20:25;;;;;;;;;14.33;12.33;;;;;22.81;37.82;101645.09;5068964;27;45430;-76
2022/03/09 13:22:50;;;;;;;;;17.00;16.00;;;;;22.83;37.40;101640.41;5063481;28;45441;-76
2022/03/09 13:25:16;;;;;;;;;17.67;12.00;;;;;22.81;37.57;101649.66;5067914;28;46054;-75
2022/03/09 13:27:43;;;;;;;;;15.33;12.67;;;;;22.81;37.86;101645.09;5066569;28;45639;-76
2022/03/09 13:30:18;;;;;;;;;16.00;15.33;;;;;22.80;37.78;101640.66;5068539;27;45619;-77
2022/03/09 13:32:43;;;;;;;;;16.33;13.00;;;;;22.77;37.57;101644.53;5065209;28;45483;-77
2022/03/09 13:35:16;;;;;;;;;18.00;16.00;;;;;22.75;37.87;101642.94;5068007;27;46110;-77
2022/03/09 13:37:41;;;;;;;;;17.67;15.33;;;;;22.70;38.02;101635.28;5065535;28;45712;-77
2022/03/09 13:40:09;;;;;;;;;17.67;15.33;;;;;22.69;37.62;101632.69;5065969;28;45553;-77
2022/03/09 13:42:39;;;;;;;;;14.33;11.67;;;;;22.65;38.05;101621.31;5063699;28;46026;-77
2022/03/09 13:45:11;;;;;;;;;15.00;10.00;;;;;22.66;37.97;101619.44;5068309;27;47212;-76
2022/03/09 13:47:57;;;;;;;;;14.33;12.33;;;;;22.64;38.22;101622.28;5065661;28;45736;-76
2022/03/09 13:50:24;;;;;;;;;20.00;16.33;;;;;22.64;37.62;101619.59;5064535;28;45547;-75
2022/03/09 13:52:53;;;;;;;;;18.50;14.00;;;;;22.62;37.48;101619.75;5066422;27;45608;-76
2022/03/09 13:55:21;;;;;;;;;14.50;14.50;;;;;22.61;37.88;101620.72;5062556;28;47081;-77
2022/03/09 13:57:58;;;;;;;;;15.33;15.00;;;;;22.60;37.25;101619.00;5062754;27;45403;-78
2022/03/09 14:00:30;;;;;;;;;19.50;19.50;;;;;22.60;37.38;101618.19;5060558;28;45366;-76
2022/03/09 14:03:16;;;;;;;;;26.25;19.25;;;;;22.60;37.89;101623.59;5073610;27;45580;-76
2022/03/09 14:05:45;;;;;;;;;23.50;21.75;;;;;22.59;37.57;101613.75;5101810;27;47233;-75
2022/03/09 14:08:32;;;;;;;;;38.50;25.75;;;;;22.58;37.06;101614.75;5069058;28;45970;-74
2022/03/09 14:11:08;;;;;;;;;22.50;22.00;;;;;22.57;37.07;101619.31;5070716;28;45586;-75
2022/03/09 14:13:38;;;;;;;;;30.00;23.25;;;;;22.57;37.36;101610.34;5068943;27;45599;-75
2022/03/09 14:16:04;;;;;;;;;19.00;19.00;;;;;22.55;37.32;101605.06;5068327;27;46537;-77
2022/03/09 14:18:30;;;;;;;;;24.50;20.50;;;;;22.54;37.20;101608.78;5067082;27;45771;-78
2022/03/09 14:20:55;;;;;;;;;22.00;20.00;;;;;22.56;37.11;101603.22;5058256;28;45577;-76
2022/03/09 14:23:22;;;;;;;;;24.00;21.75;;;;;22.57;37.32;101607.63;5057928;28;46416;-75
2022/03/09 14:25:48;;;;;;;;;28.50;23.00;;;;;22.57;37.06;101594.97;5060343;28;46271;-74
2022/03/09 14:28:13;;;;;;;;;25.75;19.75;;;;;22.60;36.84;101599.25;5063744;27;46105;-74
2022/03/09 14:30:38;;;;;;;;;24.50;21.75;;;;;22.60;36.80;101593.84;5055988;28;45498;-74
2022/03/09 14:33:04;;;;;;;;;25.75;21.00;;;;;22.60;37.07;101586.56;5061254;28;45576;-74
2022/03/09 14:35:30;;;;;;;;;23.25;18.75;;;;;22.60;37.13;101586.56;5068002;27;46125;-73
2022/03/09 14:37:55;;;;;;;;;20.00;17.00;;;;;22.60;37.21;101583.00;5068877;27;45619;-73
2022/03/09 14:40:26;;;;;;;;;25.25;22.25;;;;;22.61;37.49;101580.13;5068939;27;45506;-73
2022/03/09 14:42:53;;;;;;;;;26.50;21.00;;;;;22.62;37.79;101589.13;5063336;27;45623;-73
2022/03/09 14:45:19;;;;;;;;;23.25;21.25;;;;;22.62;37.65;101586.41;5066903;27;46253;-74
2022/03/09 14:47:46;;;;;;;;;31.50;24.25;;;;;22.61;37.53;101576.59;5068052;28;45512;-73
2022/03/09 14:50:14;;;;;;;;;28.75;22.75;;;;;22.60;37.36;101570.31;5065536;27;45774;-73
2022/03/09 14:52:40;;;;;;;;;27.25;23.00;;;;;22.60;36.51;101577.59;5065247;28;45620;-73
2022/03/09 14:55:07;;;;;;;;;22.00;21.00;;;;;22.58;36.34;101575.03;5067395;27;45531;-73
2022/03/09 14:57:35;;;;;;;;;20.00;18.50;;;;;22.55;36.16;101572.59;5063535;28;45465;-76
2022/03/09 15:00:01;;;;;;;;;19.75;16.75;;;;;22.57;35.92;101570.63;5065931;28;45450;-75
2022/03/09 15:02:26;;;;;;;;;23.25;21.00;;;;;22.54;35.06;101573.59;5070936;28;45652;-75
2022/03/09 15:04:52;;;;;;;;;20.75;17.50;;;;;22.52;35.56;101562.00;5070480;28;55319;-75
2022/03/09 15:07:19;;;;;;;;;22.50;20.75;;;;;22.50;35.42;101564.03;5061566;27;54430;-76
2022/03/09 15:09:44;;;;;;;;;22.50;17.50;;;;;22.48;35.84;101564.16;5061195;27;45535;-73
2022/03/09 15:12:09;;;;;;;;;20.50;18.00;;;;;22.53;36.79;101557.47;5059254;28;46882;-73
2022/03/09 15:14:35;;;;;;;;;16.50;14.25;;;;;22.60;36.76;101567.59;5066568;27;50786;-73
2022/03/09 15:17:00;;;;;;;;;23.75;19.25;;;;;22.66;37.32;101563.50;5065221;27;46638;-72
2022/03/09 15:19:26;;;;;;;;;22.75;22.25;;;;;22.72;37.17;101572.91;5062963;28;45965;-74
2022/03/09 15:21:55;;;;;;;;;17.33;16.67;;;;;22.76;37.41;101560.75;5063202;28;45613;-71
2022/03/09 15:24:21;;;;;;;;;17.50;16.75;;;;;22.79;37.79;101565.91;5065779;28;46097;-72
2022/03/09 15:26:48;;;;;;;;;21.00;19.00;;;;;22.83;37.58;101572.72;5064833;28;45465;-73
2022/03/09 15:29:14;;;;;;;;;23.00;21.50;;;;;22.87;37.86;101571.44;5059754;27;45576;-72
2022/03/09 15:31:40;;;;;;;;;23.33;19.00;;;;;22.90;38.32;101560.31;5060437;27;45528;-72
2022/03/09 15:34:05;;;;;;;;;20.75;18.00;;;;;22.95;38.26;101559.03;5066142;28;45480;-73
2022/03/09 15:36:32;;;;;;;;;14.33;13.67;;;;;22.94;38.45;101547.38;5064099;28;46525;-73
2022/03/09 15:38:58;;;;;;;;;16.67;14.00;;;;;22.99;38.35;101557.75;5062816;28;45628;-73
2022/03/09 15:41:23;;;;;;;;;18.00;14.33;;;;;23.01;37.90;101563.88;5065440;28;45532;-72
2022/03/09 15:43:51;;;;;;;;;14.00;14.00;;;;;23.02;38.08;101566.44;5063017;27;46019;-71
2022/03/09 15:46:17;;;;;;;;;16.00;16.00;;;;;23.06;38.08;101560.72;5063288;28;45547;-71
2022/03/09 15:48:43;;;;;;;;;20.00;15.00;;;;;23.07;38.33;101554.31;5061153;28;45624;-71
2022/03/09 15:51:08;;;;;;;;;19.00;17.33;;;;;23.09;38.69;101558.59;5060412;28;45586;-73
2022/03/09 15:53:33;;;;;;;;;19.00;18.25;;;;;23.06;38.54;101541.78;5063776;27;46051;-73
2022/03/09 15:55:59;;;;;;;;;17.67;16.33;;;;;23.12;38.35;101562.84;5064866;27;45529;-80
2022/03/09 15:58:24;;;;;;;;;28.25;23.50;;;;;23.13;37.93;101559.16;5061526;27;45750;-79
2022/03/09 16:00:49;;;;;;;;;23.50;22.00;;;;;22.96;37.58;101537.25;5061314;27;45490;-78
2022/03/09 16:03:15;;;;;;;;;21.25;21.25;;;;;23.08;37.67;101569.56;5062767;28;45726;-75
2022/03/09 16:05:40;;;;;;;;;23.00;20.00;;;;;23.04;38.11;101566.28;5063980;27;45507;-75
2022/03/09 16:08:06;;;;;;;;;31.50;23.50;;;;;22.97;37.12;101563.31;5064516;27;45346;-74
2022/03/09 16:10:31;;;;;;;;;29.00;24.25;;;;;22.95;37.54;101568.03;5064878;27;45501;-74
2022/03/09 16:12:58;;;;;;;;;26.25;25.50;;;;;22.93;37.77;101556.47;5064505;27;47081;-75
2022/03/09 16:15:23;;;;;;;;;27.75;19.25;;;;;22.92;37.57;101553.94;5063335;27;45521;-77
2022/03/09 16:17:50;;;;;;;;;23.25;19.50;;;;;22.88;37.68;101554.22;5064789;28;45502;-77
2022/03/09 16:20:16;;;;;;;;;24.25;22.75;;;;;22.90;38.15;101568.44;5067615;27;45667;-77
2022/03/09 16:22:41;;;;;;;;;31.00;21.75;;;;;22.89;38.20;101564.03;5064103;28;45538;-79
2022/03/09 16:25:08;;;;;;;;;22.75;20.50;;;;;22.87;37.70;101563.34;5063156;27;45492;-80
2022/03/09 16:27:34;;;;;;;;;23.75;17.25;;;;;22.85;37.94;101564.47;5064183;27;45383;-80
2022/03/09 16:30:00;;;;;;;;;22.50;20.50;;;;;22.85;37.88;101567.19;5069835;27;45701;-81
2022/03/09 16:32:25;;;;;;;;;18.75;18.25;;;;;22.83;37.92;101561.03;5071116;28;46272;-81
2022/03/09 16:34:51;;;;;;;;;22.00;20.00;;;;;22.84;38.39;101566.31;5092384;27;47461;-83
2022/03/09 16:37:16;;;;;;;;;24.00;20.00;;;;;22.84;38.39;101563.63;5066170;27;45589;-82
2022/03/09 16:39:41;;;;;;;;;22.25;19.25;;;;;22.84;38.16;101560.91;5065520;28;45544;-79
2022/03/09 16:42:07;;;;;;;;;23.50;17.00;;;;;22.82;38.73;101556.63;5067452;27;46074;-80
2022/03/09 16:44:33;;;;;;;;;21.00;20.75;;;;;22.84;38.54;101557.38;5065185;28;45889;-79
2022/03/09 16:46:58;;;;;;;;;20.75;17.25;;;;;22.85;38.88;101568.03;5064406;28;45755;-81
2022/03/09 16:49:24;;;;;;;;;23.75;18.50;;;;;22.87;38.60;101571.44;5065061;27;45533;-79
2022/03/09 16:51:49;;;;;;;;;29.75;18.00;;;;;22.87;39.13;101574.16;5060017;27;46571;-81
2022/03/09 16:54:14;;;;;;;;;27.00;19.50;;;;;22.87;39.06;101582.28;5061752;27;45490;-78
2022/03/09 16:56:40;;;;;;;;;24.25;16.50;;;;;22.88;39.04;101581.28;5060855;28;45394;-84
2022/03/09 16:59:06;;;;;;;;;14.00;14.00;;;;;22.83;38.55;101574.56;5066024;28;46523;-81
2022/03/09 17:01:31;;;;;;;;;23.67;18.00;;;;;22.83;38.84;101571.88;5063483;27;48116;-88
2022/03/09 17:03:57;;;;;;;;;22.67;18.67;;;;;22.84;38.83;101582.56;5062771;27;46536;-86
2022/03/09 17:06:22;;;;;;;;;17.25;16.75;;;;;22.86;39.20;101574.31;5061097;27;45452;-86
2022/03/09 17:08:48;;;;;;;;;21.25;15.75;;;;;22.88;38.98;101580.41;5067306;27;45743;-85
2022/03/09 17:11:13;;;;;;;;;17.75;17.25;;;;;22.88;39.00;101583.97;5068244;27;45925;-88
2022/03/09 17:13:39;;;;;;;;;21.00;16.00;;;;;22.86;37.87;101577.88;5064488;28;46956;-84
2022/03/09 17:16:05;;;;;;;;;22.25;18.50;;;;;22.83;37.91;101583.56;5065733;27;45597;-83
2022/03/09 17:18:32;;;;;;;;;19.00;18.00;;;;;22.80;38.01;101586.53;5066254;27;45819;-86
2022/03/09 17:20:57;;;;;;;;;19.25;15.50;;;;;22.76;38.26;101594.09;5066227;27;46332;-82
2022/03/09 17:23:23;;;;;;;;;20.75;19.25;;;;;22.74;37.86;101593.41;5067015;28;46381;-86
2022/03/09 17:25:49;;;;;;;;;20.50;19.00;;;;;22.72;38.02;101598.09;5063196;27;45845;-84
2022/03/09 17:28:14;;;;;;;;;18.25;16.50;;;;;22.71;38.55;101601.78;5064620;27;46450;-87
2022/03/09 17:30:39;;;;;;;;;19.00;16.33;;;;;22.70;38.62;101591.97;5066388;27;46353;-87
2022/03/09 17:33:05;;;;;;;;;19.33;15.33;;;;;22.70;39.06;101596.53;5066925;27;45928;-79
2022/03/09 17:35:31;;;;;;;;;18.00;14.50;;;;;22.71;38.34;101599.09;5068030;27;47285;-81
2022/03/09 17:37:57;;;;;;;;;18.33;17.00;;;;;22.69;39.25;101590.28;5065731;28;45502;-82
2022/03/09 17:40:22;;;;;;;;;19.50;17.75;;;;;22.69;39.03;101590.28;5066914;27;46471;-83
2022/03/09 17:42:48;;;;;;;;;15.33;15.00;;;;;22.70;38.77;101594.69;5077660;27;45433;-83
2022/03/09 17:45:13;;;;;;;;;17.50;16.50;;;;;22.76;38.96;101607.63;5067959;27;45489;-84
2022/03/09 17:47:38;;;;;;;;;14.33;14.33;;;;;22.76;38.65;101606.78;5069800;28;45822;-82
2022/03/09 17:50:06;;;;;;;;;18.33;15.00;;;;;22.77;38.98;101609.34;5064780;27;45696;-83